Terminal Aerodrome Forecast
Issued by NWS Grand Junction, CO

Home | Current Version | Previous Version | Text Only | Print | Product List | Glossary On
Versions: 1 2 3 4 5 6 7 8 9 10 11 12 13 14 15 16 17 18 19 20 21 22 23 24 25 26 27 28 29 30 31 32 33 34 35 36 37 38 39
219
FTUS45 KGJT 011120
TAFGJT
TAF
KGJT 011120Z 0112/0212 VRB06KT P6SM SCT080
     FM011700 13006KT P6SM BKN200
     FM012000 16006KT P6SM VCSH OVC130
     FM020100 13008KT P6SM VCSH OVC070
     FM020600 12006KT P6SM OVC050=

USA.gov is the U.S. government's official web portal to all federal, state and local government web resources and services.